sensor_id;sensor_type;location;lat;lon;timestamp;pressure;altitude;pressure_sealevel;temperature;humidity
78317;BME280;67572;50.930;18.276;2023-04-15T00:02:59;97743.22;;;10.50;78.99
78317;BME280;67572;50.930;18.276;2023-04-15T00:06:03;97740.56;;;10.40;79.01
78317;BME280;67572;50.930;18.276;2023-04-15T00:09:07;97739.72;;;10.30;79.33
78317;BME280;67572;50.930;18.276;2023-04-15T00:12:11;97741.69;;;10.47;79.08
78317;BME280;67572;50.930;18.276;2023-04-15T00:15:16;97743.50;;;10.37;79.31
78317;BME280;67572;50.930;18.276;2023-04-15T00:18:22;97737.06;;;10.40;79.32
78317;BME280;67572;50.930;18.276;2023-04-15T00:21:27;97735.53;;;10.47;79.25
78317;BME280;67572;50.930;18.276;2023-04-15T00:24:30;97742.50;;;10.57;78.40
78317;BME280;67572;50.930;18.276;2023-04-15T00:27:34;97746.16;;;10.56;78.99
78317;BME280;67572;50.930;18.276;2023-04-15T00:30:39;97756.53;;;10.60;78.73
78317;BME280;67572;50.930;18.276;2023-04-15T00:33:43;97751.06;;;10.61;78.93
78317;BME280;67572;50.930;18.276;2023-04-15T00:36:46;97752.06;;;10.60;78.62
78317;BME280;67572;50.930;18.276;2023-04-15T00:39:50;97755.69;;;10.59;78.51
78317;BME280;67572;50.930;18.276;2023-04-15T00:42:53;97754.00;;;10.68;78.39
78317;BME280;67572;50.930;18.276;2023-04-15T00:45:59;97753.03;;;10.78;78.21
78317;BME280;67572;50.930;18.276;2023-04-15T00:49:05;97754.69;;;10.70;78.17
78317;BME280;67572;50.930;18.276;2023-04-15T00:52:09;97740.41;;;10.80;77.97
78317;BME280;67572;50.930;18.276;2023-04-15T00:55:12;97759.03;;;10.61;78.86
78317;BME280;67572;50.930;18.276;2023-04-15T00:58:17;97761.28;;;10.66;78.15
78317;BME280;67572;50.930;18.276;2023-04-15T01:01:23;97757.75;;;10.65;78.08
78317;BME280;67572;50.930;18.276;2023-04-15T01:04:27;97752.44;;;10.65;77.91
78317;BME280;67572;50.930;18.276;2023-04-15T01:07:32;97759.59;;;10.65;77.83
78317;BME280;67572;50.930;18.276;2023-04-15T01:10:38;97758.88;;;10.72;78.04
78317;BME280;67572;50.930;18.276;2023-04-15T01:13:42;97770.22;;;10.65;78.16
78317;BME280;67572;50.930;18.276;2023-04-15T01:16:47;97775.81;;;10.71;78.20
78317;BME280;67572;50.930;18.276;2023-04-15T01:19:52;97774.59;;;10.75;78.23
78317;BME280;67572;50.930;18.276;2023-04-15T01:22:57;97772.31;;;10.71;77.92
78317;BME280;67572;50.930;18.276;2023-04-15T01:26:04;97778.50;;;10.81;77.72
78317;BME280;67572;50.930;18.276;2023-04-15T01:29:08;97780.03;;;10.83;77.63
78317;BME280;67572;50.930;18.276;2023-04-15T01:32:15;97782.69;;;10.74;78.27
78317;BME280;67572;50.930;18.276;2023-04-15T01:35:37;97792.75;;;10.70;78.42
78317;BME280;67572;50.930;18.276;2023-04-15T01:38:41;97789.41;;;10.68;78.46
78317;BME280;67572;50.930;18.276;2023-04-15T01:41:46;97798.63;;;10.64;78.71
78317;BME280;67572;50.930;18.276;2023-04-15T01:44:51;97798.91;;;10.80;77.89
78317;BME280;67572;50.930;18.276;2023-04-15T01:47:57;97796.69;;;10.76;78.14
78317;BME280;67572;50.930;18.276;2023-04-15T01:51:01;97802.16;;;10.84;78.04
78317;BME280;67572;50.930;18.276;2023-04-15T01:54:06;97794.97;;;10.65;78.46
78317;BME280;67572;50.930;18.276;2023-04-15T01:57:12;97797.13;;;10.81;78.14
78317;BME280;67572;50.930;18.276;2023-04-15T02:00:17;97799.19;;;10.68;78.17
78317;BME280;67572;50.930;18.276;2023-04-15T02:03:27;97806.78;;;10.82;77.87
78317;BME280;67572;50.930;18.276;2023-04-15T02:06:32;97800.03;;;10.78;77.87
78317;BME280;67572;50.930;18.276;2023-04-15T02:09:38;97799.91;;;10.79;77.91
78317;BME280;67572;50.930;18.276;2023-04-15T02:12:45;97793.44;;;10.72;77.80
78317;BME280;67572;50.930;18.276;2023-04-15T02:15:50;97794.72;;;10.88;77.38
78317;BME280;67572;50.930;18.276;2023-04-15T02:18:56;97807.06;;;10.89;77.34
78317;BME280;67572;50.930;18.276;2023-04-15T02:22:00;97812.09;;;10.92;76.90
78317;BME280;67572;50.930;18.276;2023-04-15T02:25:06;97814.19;;;10.98;76.55
78317;BME280;67572;50.930;18.276;2023-04-15T02:28:13;97818.38;;;10.81;76.24
78317;BME280;67572;50.930;18.276;2023-04-15T02:31:20;97816.44;;;10.73;76.07
78317;BME280;67572;50.930;18.276;2023-04-15T02:34:25;97823.38;;;10.55;76.37
78317;BME280;67572;50.930;18.276;2023-04-15T02:37:34;97821.41;;;10.57;76.86
78317;BME280;67572;50.930;18.276;2023-04-15T02:40:46;97819.50;;;10.69;76.20
78317;BME280;67572;50.930;18.276;2023-04-15T02:43:53;97831.50;;;10.53;76.62
78317;BME280;67572;50.930;18.276;2023-04-15T02:46:58;97836.66;;;10.55;77.25
78317;BME280;67572;50.930;18.276;2023-04-15T02:50:03;97836.97;;;10.71;76.10
78317;BME280;67572;50.930;18.276;2023-04-15T02:53:09;97846.31;;;10.56;76.29
78317;BME280;67572;50.930;18.276;2023-04-15T02:56:14;97850.63;;;10.47;76.25
78317;BME280;67572;50.930;18.276;2023-04-15T02:59:21;97858.22;;;10.52;76.11
78317;BME280;67572;50.930;18.276;2023-04-15T03:02:26;97861.31;;;10.26;76.41
78317;BME280;67572;50.930;18.276;2023-04-15T03:05:31;97868.91;;;10.10;76.68
78317;BME280;67572;50.930;18.276;2023-04-15T03:08:39;97864.41;;;9.70;77.37
78317;BME280;67572;50.930;18.276;2023-04-15T03:11:44;97871.38;;;9.71;76.84
78317;BME280;67572;50.930;18.276;2023-04-15T03:14:50;97888.22;;;9.40;77.19
78317;BME280;67572;50.930;18.276;2023-04-15T03:18:00;97889.19;;;9.39;76.13
78317;BME280;67572;50.930;18.276;2023-04-15T03:21:05;97893.56;;;9.29;75.37
78317;BME280;67572;50.930;18.276;2023-04-15T03:24:12;97890.59;;;9.22;74.96
78317;BME280;67572;50.930;18.276;2023-04-15T03:27:19;97888.75;;;9.02;75.07
78317;BME280;67572;50.930;18.276;2023-04-15T03:30:25;97893.00;;;8.93;75.81
78317;BME280;67572;50.930;18.276;2023-04-15T03:33:30;97904.31;;;8.95;74.49
78317;BME280;67572;50.930;18.276;2023-04-15T03:36:35;97903.47;;;8.83;74.82
78317;BME280;67572;50.930;18.276;2023-04-15T03:39:40;97917.28;;;8.98;74.90
78317;BME280;67572;50.930;18.276;2023-04-15T03:42:45;97909.06;;;8.69;74.61
78317;BME280;67572;50.930;18.276;2023-04-15T03:45:51;97914.47;;;8.68;75.53
78317;BME280;67572;50.930;18.276;2023-04-15T03:48:55;97920.91;;;8.54;75.34
78317;BME280;67572;50.930;18.276;2023-04-15T03:52:00;97924.25;;;8.45;74.77
78317;BME280;67572;50.930;18.276;2023-04-15T03:55:05;97926.66;;;8.37;73.58
78317;BME280;67572;50.930;18.276;2023-04-15T03:58:11;97928.34;;;8.26;72.87
78317;BME280;67572;50.930;18.276;2023-04-15T04:01:17;97938.56;;;8.65;71.75
78317;BME280;67572;50.930;18.276;2023-04-15T04:04:22;97940.97;;;8.34;71.93
78317;BME280;67572;50.930;18.276;2023-04-15T04:07:27;97941.56;;;8.26;72.19
78317;BME280;67572;50.930;18.276;2023-04-15T04:10:32;97940.50;;;8.18;73.12
78317;BME280;67572;50.930;18.276;2023-04-15T04:13:37;97940.34;;;8.08;72.16
78317;BME280;67572;50.930;18.276;2023-04-15T04:16:43;97934.56;;;8.03;72.16
78317;BME280;67572;50.930;18.276;2023-04-15T04:19:48;97941.22;;;8.20;71.11
78317;BME280;67572;50.930;18.276;2023-04-15T04:22:53;97933.84;;;8.12;71.89
78317;BME280;67572;50.930;18.276;2023-04-15T04:25:58;97952.03;;;8.17;71.57
78317;BME280;67572;50.930;18.276;2023-04-15T04:29:03;97954.06;;;8.13;71.90
78317;BME280;67572;50.930;18.276;2023-04-15T04:32:10;97951.44;;;8.24;71.10
78317;BME280;67572;50.930;18.276;2023-04-15T04:35:14;97954.44;;;8.09;70.71
78317;BME280;67572;50.930;18.276;2023-04-15T04:38:19;97953.94;;;8.15;70.97
78317;BME280;67572;50.930;18.276;2023-04-15T04:41:24;97962.09;;;7.89;71.11
78317;BME280;67572;50.930;18.276;2023-04-15T04:44:29;97956.72;;;8.02;71.88
78317;BME280;67572;50.930;18.276;2023-04-15T04:47:35;97962.94;;;7.90;71.12
78317;BME280;67572;50.930;18.276;2023-04-15T04:50:39;97964.50;;;7.92;70.81
78317;BME280;67572;50.930;18.276;2023-04-15T04:53:44;97965.22;;;7.83;71.64
78317;BME280;67572;50.930;18.276;2023-04-15T04:56:49;97965.25;;;7.59;71.33
78317;BME280;67572;50.930;18.276;2023-04-15T04:59:53;97962.63;;;7.70;70.91
78317;BME280;67572;50.930;18.276;2023-04-15T05:02:59;97973.06;;;7.61;71.02
78317;BME280;67572;50.930;18.276;2023-04-15T05:06:04;97971.72;;;7.90;71.12
78317;BME280;67572;50.930;18.276;2023-04-15T05:09:10;97976.16;;;7.78;70.53
78317;BME280;67572;50.930;18.276;2023-04-15T05:12:15;97979.28;;;7.84;70.43
78317;BME280;67572;50.930;18.276;2023-04-15T05:15:20;97983.28;;;8.00;70.50
78317;BME280;67572;50.930;18.276;2023-04-15T05:18:26;97988.50;;;8.02;70.51
78317;BME280;67572;50.930;18.276;2023-04-15T05:21:31;97987.66;;;8.01;70.08
78317;BME280;67572;50.930;18.276;2023-04-15T05:24:36;97986.22;;;8.09;70.70
78317;BME280;67572;50.930;18.276;2023-04-15T05:27:40;97994.72;;;8.01;71.16
78317;BME280;67572;50.930;18.276;2023-04-15T05:30:45;97989.47;;;8.12;70.94
78317;BME280;67572;50.930;18.276;2023-04-15T05:33:52;97998.75;;;8.29;70.02
78317;BME280;67572;50.930;18.276;2023-04-15T05:36:57;98006.25;;;8.46;69.47
78317;BME280;67572;50.930;18.276;2023-04-15T05:40:01;98008.41;;;8.52;69.84
78317;BME280;67572;50.930;18.276;2023-04-15T05:43:06;98003.59;;;8.46;70.26
78317;BME280;67572;50.930;18.276;2023-04-15T05:46:13;98008.25;;;8.09;70.06
78317;BME280;67572;50.930;18.276;2023-04-15T05:49:19;98014.25;;;8.22;70.22
78317;BME280;67572;50.930;18.276;2023-04-15T05:52:24;98010.63;;;8.23;69.58
78317;BME280;67572;50.930;18.276;2023-04-15T05:55:29;98011.94;;;8.64;68.13
78317;BME280;67572;50.930;18.276;2023-04-15T05:58:34;98006.25;;;8.46;68.31
78317;BME280;67572;50.930;18.276;2023-04-15T06:01:39;98007.16;;;8.23;68.48
78317;BME280;67572;50.930;18.276;2023-04-15T06:04:45;98019.53;;;8.11;67.69
78317;BME280;67572;50.930;18.276;2023-04-15T06:07:50;98017.97;;;8.09;67.87
78317;BME280;67572;50.930;18.276;2023-04-15T06:10:54;98015.59;;;8.17;67.98
78317;BME280;67572;50.930;18.276;2023-04-15T06:13:59;98016.59;;;8.38;68.32
78317;BME280;67572;50.930;18.276;2023-04-15T06:17:04;98028.91;;;8.61;67.00
78317;BME280;67572;50.930;18.276;2023-04-15T06:20:13;98019.41;;;8.70;65.28
78317;BME280;67572;50.930;18.276;2023-04-15T06:23:18;98025.06;;;8.54;65.55
78317;BME280;67572;50.930;18.276;2023-04-15T06:26:23;98029.69;;;8.28;65.73
78317;BME280;67572;50.930;18.276;2023-04-15T06:29:28;98029.56;;;8.30;66.96
78317;BME280;67572;50.930;18.276;2023-04-15T06:32:33;98034.19;;;8.39;67.33
78317;BME280;67572;50.930;18.276;2023-04-15T06:35:40;98034.50;;;8.34;66.44
78317;BME280;67572;50.930;18.276;2023-04-15T06:38:44;98041.25;;;8.27;66.39
78317;BME280;67572;50.930;18.276;2023-04-15T06:41:49;98043.03;;;8.27;66.00
78317;BME280;67572;50.930;18.276;2023-04-15T06:44:56;98038.53;;;8.51;67.16
78317;BME280;67572;50.930;18.276;2023-04-15T06:48:01;98031.66;;;8.60;66.32
78317;BME280;67572;50.930;18.276;2023-04-15T06:51:07;98030.22;;;8.56;66.04
78317;BME280;67572;50.930;18.276;2023-04-15T06:54:11;98037.44;;;8.76;66.37
78317;BME280;67572;50.930;18.276;2023-04-15T06:57:16;98036.84;;;8.84;65.67
78317;BME280;67572;50.930;18.276;2023-04-15T07:00:21;98028.53;;;8.66;66.17
78317;BME280;67572;50.930;18.276;2023-04-15T07:03:26;98035.75;;;8.75;66.35
78317;BME280;67572;50.930;18.276;2023-04-15T07:06:36;98032.75;;;8.80;65.33
78317;BME280;67572;50.930;18.276;2023-04-15T07:09:40;98034.69;;;9.00;64.96
78317;BME280;67572;50.930;18.276;2023-04-15T07:12:46;98036.56;;;9.21;64.69
78317;BME280;67572;50.930;18.276;2023-04-15T07:15:52;98045.25;;;9.23;64.61
78317;BME280;67572;50.930;18.276;2023-04-15T07:18:57;98039.00;;;9.24;64.93
78317;BME280;67572;50.930;18.276;2023-04-15T07:22:04;98045.66;;;9.50;64.61
78317;BME280;67572;50.930;18.276;2023-04-15T07:25:09;98049.41;;;9.48;64.12
78317;BME280;67572;50.930;18.276;2023-04-15T07:28:14;98056.25;;;9.61;64.80
78317;BME280;67572;50.930;18.276;2023-04-15T07:31:18;98053.13;;;9.56;63.25
78317;BME280;67572;50.930;18.276;2023-04-15T07:34:23;98060.81;;;9.70;62.71
78317;BME280;67572;50.930;18.276;2023-04-15T07:37:29;98049.78;;;10.07;61.63
78317;BME280;67572;50.930;18.276;2023-04-15T07:40:34;98066.16;;;10.23;61.56
78317;BME280;67572;50.930;18.276;2023-04-15T07:43:39;98063.91;;;10.08;59.89
78317;BME280;67572;50.930;18.276;2023-04-15T07:46:43;98063.03;;;10.60;58.10
78317;BME280;67572;50.930;18.276;2023-04-15T07:49:48;98069.09;;;10.72;56.31
78317;BME280;67572;50.930;18.276;2023-04-15T07:52:55;98072.25;;;10.87;56.60
78317;BME280;67572;50.930;18.276;2023-04-15T07:56:00;98072.41;;;10.95;53.97
78317;BME280;67572;50.930;18.276;2023-04-15T07:59:08;98070.13;;;10.80;53.17
78317;BME280;67572;50.930;18.276;2023-04-15T08:02:13;98078.81;;;10.82;54.44
78317;BME280;67572;50.930;18.276;2023-04-15T08:05:19;98076.00;;;10.74;51.35
78317;BME280;67572;50.930;18.276;2023-04-15T08:08:31;98070.44;;;10.87;52.20
78317;BME280;67572;50.930;18.276;2023-04-15T08:11:38;98075.69;;;11.08;53.38
78317;BME280;67572;50.930;18.276;2023-04-15T08:14:43;98078.47;;;11.47;51.97
78317;BME280;67572;50.930;18.276;2023-04-15T08:17:48;98077.13;;;11.62;53.17
78317;BME280;67572;50.930;18.276;2023-04-15T08:20:52;98074.59;;;11.51;51.54
78317;BME280;67572;50.930;18.276;2023-04-15T08:23:59;98081.94;;;11.28;52.32
78317;BME280;67572;50.930;18.276;2023-04-15T08:27:05;98077.31;;;11.20;49.59
78317;BME280;67572;50.930;18.276;2023-04-15T08:30:11;98086.00;;;11.82;50.76
78317;BME280;67572;50.930;18.276;2023-04-15T08:33:16;98085.53;;;11.57;50.26
78317;BME280;67572;50.930;18.276;2023-04-15T08:36:21;98083.84;;;11.56;50.06
78317;BME280;67572;50.930;18.276;2023-04-15T08:39:27;98087.56;;;12.04;49.98
78317;BME280;67572;50.930;18.276;2023-04-15T08:42:40;98076.91;;;12.13;48.78
78317;BME280;67572;50.930;18.276;2023-04-15T08:45:47;98075.34;;;11.91;49.25
78317;BME280;67572;50.930;18.276;2023-04-15T08:48:55;98076.84;;;12.62;49.50
78317;BME280;67572;50.930;18.276;2023-04-15T08:52:01;98071.97;;;12.47;46.74
78317;BME280;67572;50.930;18.276;2023-04-15T08:55:09;98077.84;;;13.08;49.12
78317;BME280;67572;50.930;18.276;2023-04-15T08:58:15;98078.31;;;13.58;48.31
78317;BME280;67572;50.930;18.276;2023-04-15T09:01:21;98075.25;;;13.53;47.14
78317;BME280;67572;50.930;18.276;2023-04-15T09:04:27;98085.63;;;12.82;46.99
78317;BME280;67572;50.930;18.276;2023-04-15T09:07:33;98076.69;;;13.20;45.62
78317;BME280;67572;50.930;18.276;2023-04-15T09:10:40;98078.53;;;13.65;47.59
78317;BME280;67572;50.930;18.276;2023-04-15T09:13:48;98081.97;;;13.29;47.10
78317;BME280;67572;50.930;18.276;2023-04-15T09:16:56;98084.66;;;12.83;46.26
78317;BME280;67572;50.930;18.276;2023-04-15T09:20:08;98078.84;;;12.97;45.88
78317;BME280;67572;50.930;18.276;2023-04-15T09:23:15;98075.44;;;13.42;46.54
78317;BME280;67572;50.930;18.276;2023-04-15T09:26:29;98090.13;;;13.28;45.07
78317;BME280;67572;50.930;18.276;2023-04-15T09:29:34;98081.13;;;13.56;45.67
78317;BME280;67572;50.930;18.276;2023-04-15T09:32:48;98084.47;;;14.22;46.40
78317;BME280;67572;50.930;18.276;2023-04-15T09:35:58;98088.59;;;14.16;47.06
78317;BME280;67572;50.930;18.276;2023-04-15T09:39:04;98085.44;;;13.85;45.94
78317;BME280;67572;50.930;18.276;2023-04-15T09:42:10;98087.38;;;13.93;46.22
78317;BME280;67572;50.930;18.276;2023-04-15T09:45:15;98075.44;;;14.23;44.65
78317;BME280;67572;50.930;18.276;2023-04-15T09:48:22;98078.44;;;14.02;44.74
78317;BME280;67572;50.930;18.276;2023-04-15T09:51:33;98078.19;;;13.77;44.77
78317;BME280;67572;50.930;18.276;2023-04-15T09:54:38;98084.22;;;13.97;44.52
78317;BME280;67572;50.930;18.276;2023-04-15T09:57:45;98089.63;;;13.87;45.34
78317;BME280;67572;50.930;18.276;2023-04-15T10:00:51;98080.22;;;13.66;45.98
78317;BME280;67572;50.930;18.276;2023-04-15T10:03:56;98081.44;;;13.53;44.52
78317;BME280;67572;50.930;18.276;2023-04-15T10:07:04;98084.69;;;13.47;45.06
78317;BME280;67572;50.930;18.276;2023-04-15T10:10:09;98088.56;;;14.34;47.79
78317;BME280;67572;50.930;18.276;2023-04-15T10:13:17;98103.63;;;14.17;44.53
78317;BME280;67572;50.930;18.276;2023-04-15T10:16:26;98094.63;;;14.00;45.08
78317;BME280;67572;50.930;18.276;2023-04-15T10:19:32;98082.59;;;14.40;43.82
78317;BME280;67572;50.930;18.276;2023-04-15T10:22:37;98095.88;;;14.93;43.26
78317;BME280;67572;50.930;18.276;2023-04-15T10:25:42;98098.25;;;14.70;43.94
78317;BME280;67572;50.930;18.276;2023-04-15T10:28:48;98099.72;;;14.91;45.83
78317;BME280;67572;50.930;18.276;2023-04-15T10:31:54;98098.31;;;14.79;45.84
78317;BME280;67572;50.930;18.276;2023-04-15T10:35:00;98107.28;;;14.34;44.80
78317;BME280;67572;50.930;18.276;2023-04-15T10:38:32;98104.91;;;13.95;45.52
78317;BME280;67572;50.930;18.276;2023-04-15T10:41:37;98098.22;;;14.09;44.60
78317;BME280;67572;50.930;18.276;2023-04-15T10:44:48;98104.31;;;13.83;45.96
78317;BME280;67572;50.930;18.276;2023-04-15T10:47:56;98100.88;;;14.09;45.41
78317;BME280;67572;50.930;18.276;2023-04-15T10:51:04;98101.94;;;14.16;47.36
78317;BME280;67572;50.930;18.276;2023-04-15T10:54:13;98107.84;;;13.74;46.28
78317;BME280;67572;50.930;18.276;2023-04-15T10:57:22;98110.09;;;13.97;45.94
78317;BME280;67572;50.930;18.276;2023-04-15T11:00:29;98113.00;;;14.03;46.23
78317;BME280;67572;50.930;18.276;2023-04-15T11:03:36;98117.38;;;14.22;45.56
78317;BME280;67572;50.930;18.276;2023-04-15T11:06:44;98110.84;;;14.52;43.97
78317;BME280;67572;50.930;18.276;2023-04-15T11:09:49;98111.28;;;15.25;44.86
78317;BME280;67572;50.930;18.276;2023-04-15T11:13:01;98101.06;;;14.95;43.74
78317;BME280;67572;50.930;18.276;2023-04-15T11:16:10;98108.72;;;15.84;44.02
78317;BME280;67572;50.930;18.276;2023-04-15T11:19:15;98101.03;;;15.97;42.88
78317;BME280;67572;50.930;18.276;2023-04-15T11:22:19;98113.13;;;15.25;44.56
78317;BME280;67572;50.930;18.276;2023-04-15T11:25:26;98107.44;;;14.50;42.25
78317;BME280;67572;50.930;18.276;2023-04-15T11:28:32;98111.78;;;14.95;42.46
78317;BME280;67572;50.930;18.276;2023-04-15T11:31:40;98115.78;;;14.47;42.59
78317;BME280;67572;50.930;18.276;2023-04-15T11:34:45;98115.34;;;14.52;42.67
78317;BME280;67572;50.930;18.276;2023-04-15T11:37:53;98119.13;;;14.67;43.29
78317;BME280;67572;50.930;18.276;2023-04-15T11:40:59;98114.25;;;14.88;42.29
78317;BME280;67572;50.930;18.276;2023-04-15T11:44:15;98118.75;;;15.74;42.91
78317;BME280;67572;50.930;18.276;2023-04-15T11:47:37;98121.03;;;16.19;42.67
78317;BME280;67572;50.930;18.276;2023-04-15T11:50:42;98125.84;;;15.99;41.55
78317;BME280;67572;50.930;18.276;2023-04-15T11:53:47;98126.50;;;15.93;42.37
78317;BME280;67572;50.930;18.276;2023-04-15T11:56:51;98121.03;;;15.01;42.33
78317;BME280;67572;50.930;18.276;2023-04-15T11:59:55;98124.78;;;15.42;44.09
78317;BME280;67572;50.930;18.276;2023-04-15T12:03:17;98125.88;;;16.16;44.18
78317;BME280;67572;50.930;18.276;2023-04-15T12:06:23;98126.69;;;16.16;42.94
78317;BME280;67572;50.930;18.276;2023-04-15T12:09:28;98127.75;;;16.40;42.29
78317;BME280;67572;50.930;18.276;2023-04-15T12:12:33;98135.31;;;15.77;42.33
78317;BME280;67572;50.930;18.276;2023-04-15T12:15:37;98129.16;;;15.51;41.03
78317;BME280;67572;50.930;18.276;2023-04-15T12:18:45;98130.28;;;15.66;40.37
78317;BME280;67572;50.930;18.276;2023-04-15T12:21:58;98135.66;;;15.74;40.60
78317;BME280;67572;50.930;18.276;2023-04-15T12:25:04;98140.66;;;15.69;42.47
78317;BME280;67572;50.930;18.276;2023-04-15T12:28:10;98136.13;;;15.70;40.67
78317;BME280;67572;50.930;18.276;2023-04-15T12:31:16;98142.44;;;15.61;41.33
78317;BME280;67572;50.930;18.276;2023-04-15T12:34:29;98128.19;;;15.26;41.06
78317;BME280;67572;50.930;18.276;2023-04-15T12:37:35;98137.19;;;15.43;41.94
78317;BME280;67572;50.930;18.276;2023-04-15T12:40:38;98133.72;;;15.24;43.13
78317;BME280;67572;50.930;18.276;2023-04-15T12:43:44;98137.84;;;15.45;42.22
78317;BME280;67572;50.930;18.276;2023-04-15T12:46:48;98134.34;;;14.92;41.98
78317;BME280;67572;50.930;18.276;2023-04-15T12:49:53;98143.16;;;15.37;43.49
78317;BME280;67572;50.930;18.276;2023-04-15T12:52:57;98140.97;;;15.06;45.27
78317;BME280;67572;50.930;18.276;2023-04-15T12:56:01;98146.84;;;15.10;44.43
78317;BME280;67572;50.930;18.276;2023-04-15T12:59:06;98143.25;;;15.53;42.63
78317;BME280;67572;50.930;18.276;2023-04-15T13:02:10;98151.06;;;15.46;42.67
78317;BME280;67572;50.930;18.276;2023-04-15T13:05:15;98157.53;;;15.62;45.05
78317;BME280;67572;50.930;18.276;2023-04-15T13:08:18;98150.41;;;15.87;42.54
78317;BME280;67572;50.930;18.276;2023-04-15T13:11:22;98159.50;;;15.94;43.04
78317;BME280;67572;50.930;18.276;2023-04-15T13:14:26;98159.81;;;15.82;41.72
78317;BME280;67572;50.930;18.276;2023-04-15T13:17:30;98154.03;;;15.61;41.80
78317;BME280;67572;50.930;18.276;2023-04-15T13:20:36;98161.72;;;15.04;41.03
78317;BME280;67572;50.930;18.276;2023-04-15T13:23:40;98158.91;;;14.88;44.68
78317;BME280;67572;50.930;18.276;2023-04-15T13:26:44;98164.59;;;14.85;42.90
78317;BME280;67572;50.930;18.276;2023-04-15T13:29:54;98166.75;;;14.63;43.02
78317;BME280;67572;50.930;18.276;2023-04-15T13:33:00;98159.66;;;14.54;44.09
78317;BME280;67572;50.930;18.276;2023-04-15T13:36:05;98165.97;;;14.18;52.87
78317;BME280;67572;50.930;18.276;2023-04-15T13:39:09;98167.22;;;13.96;53.68
78317;BME280;67572;50.930;18.276;2023-04-15T13:42:12;98172.13;;;13.73;55.16
78317;BME280;67572;50.930;18.276;2023-04-15T13:45:16;98164.88;;;14.10;55.97
78317;BME280;67572;50.930;18.276;2023-04-15T13:48:19;98170.22;;;13.93;55.61
78317;BME280;67572;50.930;18.276;2023-04-15T13:51:24;98167.94;;;13.70;56.18
78317;BME280;67572;50.930;18.276;2023-04-15T13:54:28;98170.88;;;13.67;57.89
78317;BME280;67572;50.930;18.276;2023-04-15T13:57:38;98173.69;;;13.75;57.13
78317;BME280;67572;50.930;18.276;2023-04-15T14:00:44;98175.75;;;13.81;58.52
78317;BME280;67572;50.930;18.276;2023-04-15T14:03:48;98181.28;;;13.70;58.00
78317;BME280;67572;50.930;18.276;2023-04-15T14:06:53;98176.88;;;13.79;58.81
78317;BME280;67572;50.930;18.276;2023-04-15T14:09:59;98186.13;;;13.57;58.99
78317;BME280;67572;50.930;18.276;2023-04-15T14:13:03;98192.06;;;13.51;59.33
78317;BME280;67572;50.930;18.276;2023-04-15T14:16:07;98186.81;;;13.59;57.41
78317;BME280;67572;50.930;18.276;2023-04-15T14:19:10;98191.03;;;13.62;58.94
78317;BME280;67572;50.930;18.276;2023-04-15T14:22:15;98186.09;;;14.75;55.49
78317;BME280;67572;50.930;18.276;2023-04-15T14:25:20;98187.28;;;15.24;53.96
78317;BME280;67572;50.930;18.276;2023-04-15T14:28:34;98186.75;;;15.21;52.12
78317;BME280;67572;50.930;18.276;2023-04-15T14:31:39;98196.34;;;15.92;52.84
78317;BME280;67572;50.930;18.276;2023-04-15T14:35:04;98194.75;;;15.65;52.19
78317;BME280;67572;50.930;18.276;2023-04-15T14:38:09;98197.47;;;15.21;50.62
78317;BME280;67572;50.930;18.276;2023-04-15T14:41:13;98202.22;;;15.27;52.12
78317;BME280;67572;50.930;18.276;2023-04-15T14:44:17;98204.75;;;15.11;54.70
78317;BME280;67572;50.930;18.276;2023-04-15T14:47:20;98206.13;;;14.53;51.89
78317;BME280;67572;50.930;18.276;2023-04-15T14:50:24;98202.03;;;14.31;55.62
78317;BME280;67572;50.930;18.276;2023-04-15T14:53:29;98217.06;;;14.32;56.25
78317;BME280;67572;50.930;18.276;2023-04-15T14:56:33;98217.59;;;14.18;56.85
78317;BME280;67572;50.930;18.276;2023-04-15T14:59:39;98221.41;;;13.88;55.92
78317;BME280;67572;50.930;18.276;2023-04-15T15:02:44;98221.91;;;13.74;56.50
78317;BME280;67572;50.930;18.276;2023-04-15T15:05:49;98227.50;;;13.80;57.11
78317;BME280;67572;50.930;18.276;2023-04-15T15:08:54;98237.44;;;13.60;57.77
78317;BME280;67572;50.930;18.276;2023-04-15T15:11:58;98241.69;;;13.53;58.14
78317;BME280;67572;50.930;18.276;2023-04-15T15:15:03;98244.63;;;13.50;56.53
78317;BME280;67572;50.930;18.276;2023-04-15T15:18:20;98242.28;;;13.28;58.23
78317;BME280;67572;50.930;18.276;2023-04-15T15:21:26;98240.75;;;13.25;59.08
78317;BME280;67572;50.930;18.276;2023-04-15T15:24:32;98255.22;;;13.32;58.67
78317;BME280;67572;50.930;18.276;2023-04-15T15:27:35;98250.59;;;13.25;58.59
78317;BME280;67572;50.930;18.276;2023-04-15T15:30:39;98257.78;;;13.24;58.27
78317;BME280;67572;50.930;18.276;2023-04-15T15:33:43;98253.97;;;13.08;58.61
78317;BME280;67572;50.930;18.276;2023-04-15T15:36:47;98254.22;;;13.14;58.66
78317;BME280;67572;50.930;18.276;2023-04-15T15:39:52;98248.34;;;13.20;58.43
78317;BME280;67572;50.930;18.276;2023-04-15T15:42:56;98253.56;;;13.02;58.91
78317;BME280;67572;50.930;18.276;2023-04-15T15:46:00;98255.50;;;13.10;58.56
78317;BME280;67572;50.930;18.276;2023-04-15T15:49:06;98265.34;;;13.10;59.17
78317;BME280;67572;50.930;18.276;2023-04-15T15:52:10;98264.06;;;13.14;59.44
78317;BME280;67572;50.930;18.276;2023-04-15T15:55:15;98267.28;;;13.46;59.10
78317;BME280;67572;50.930;18.276;2023-04-15T15:58:18;98267.28;;;13.17;57.00
78317;BME280;67572;50.930;18.276;2023-04-15T16:01:22;98262.81;;;13.27;57.22
78317;BME280;67572;50.930;18.276;2023-04-15T16:04:26;98267.59;;;13.24;57.37
78317;BME280;67572;50.930;18.276;2023-04-15T16:07:30;98254.94;;;13.26;55.82
78317;BME280;67572;50.930;18.276;2023-04-15T16:10:39;98260.41;;;13.15;56.38
78317;BME280;67572;50.930;18.276;2023-04-15T16:13:43;98260.13;;;12.98;56.40
78317;BME280;67572;50.930;18.276;2023-04-15T16:16:47;98263.06;;;13.15;57.92